Details for Ryanair at LPFR




Go Back


Latest METAR
Local Time

LPFR 180600Z 03006KT CAVOK 22/18 Q1014
18/08/2018, 07:29:37

Description
Results
Ryanair Logo
Number of Pilots based at LPFR
0 Pilots Based here
Number of Ryanair Flights Departed from LPFR
22 Flights Departed
Number of Ryanair Flights Arrived at LPFR
18 Flights Arrived
Number of Ryanair Schedules Departing from LPFR
75 Schedules
Number of Ryanair Schedules Arriving at LPFR
74 Schedules
Number of Ryanair Schedules Departing from LPFR availible today
25 Schedules Today
Number of Ryanair Schedules Arriving at LPFR availible today
25 Schedules Today
Average Landing Rate at LPFR
-186 fpm
Ryanair Average Landing Rate at LPFR
-187 fpm
Total Fuel Purchased at LPFR by Ryanair
152,194.26 kgs / 335,527.47 lbs

Pilots Based at LPFR


Pilot ID
Pilot Name
Pilot Rank
No. of Flights
No. of Flying Hours
There are no pilots assigned to this hub!   Will you be the first?
Content